Time;durP1;ratioP1;P1;durP2;ratioP2;P2;SDS_P1;SDS_P2;PMS_P1;PMS_P2;Temp;Humidity;BMP_temperature;BMP_pressure;BME280_temperature;BME280_humidity;BME280_pressure;Samples;Min_cycle;Max_cycle;Signal;HPM_P1;HPM_P2
2023/08/23 00:01:54;;;;;;;3.37;2.13;;;18.60;99.90;;;;;;6073172;23;20460;-77
2023/08/23 00:04:20;;;;;;;3.33;2.30;;;18.50;99.90;;;;;;6073688;23;20784;-77
2023/08/23 00:06:45;;;;;;;2.23;2.00;;;18.50;99.90;;;;;;6053690;23;20145;-78
2023/08/23 00:09:11;;;;;;;2.67;2.10;;;18.50;99.90;;;;;;6048090;23;20143;-78
2023/08/23 00:11:37;;;;;;;3.57;2.40;;;18.50;99.90;;;;;;6071617;23;20172;-78
2023/08/23 00:14:03;;;;;;;2.53;2.10;;;18.50;99.90;;;;;;6047259;23;20149;-78
2023/08/23 00:16:29;;;;;;;3.10;2.30;;;18.40;99.90;;;;;;6072760;23;20412;-77
2023/08/23 00:18:55;;;;;;;3.97;2.30;;;18.40;99.90;;;;;;6048067;23;20171;-77
2023/08/23 00:21:20;;;;;;;3.20;2.37;;;18.40;99.90;;;;;;6072628;23;20166;-79
2023/08/23 00:23:46;;;;;;;2.37;1.90;;;18.50;99.90;;;;;;6047346;23;20396;-76
2023/08/23 00:26:11;;;;;;;3.97;2.60;;;18.40;99.90;;;;;;6048086;23;20153;-77
2023/08/23 00:28:40;;;;;;;2.87;2.57;;;18.50;99.90;;;;;;6047563;23;20565;-78
2023/08/23 00:31:07;;;;;;;3.30;2.53;;;18.50;99.90;;;;;;6047700;23;20431;-76
2023/08/23 00:33:33;;;;;;;3.10;2.80;;;18.40;99.90;;;;;;6046976;23;20397;-76
2023/08/23 00:35:59;;;;;;;2.50;2.20;;;18.40;99.90;;;;;;6073158;23;20444;-76
2023/08/23 00:38:25;;;;;;;4.07;3.10;;;18.40;99.90;;;;;;6048461;23;20162;-76
2023/08/23 00:40:50;;;;;;;5.30;4.53;;;18.40;99.90;;;;;;6047876;23;20180;-77
2023/08/23 00:43:21;;;;;;;7.30;4.40;;;18.30;99.90;;;;;;6054433;23;20152;-77
2023/08/23 00:45:49;;;;;;;5.03;3.90;;;18.30;99.90;;;;;;6076306;23;20145;-77
2023/08/23 00:48:16;;;;;;;5.30;4.00;;;18.30;99.90;;;;;;6055733;23;20397;-75
2023/08/23 00:50:43;;;;;;;3.30;2.93;;;18.30;99.90;;;;;;6038371;23;20167;-75
2023/08/23 00:53:11;;;;;;;3.40;3.10;;;18.30;99.90;;;;;;6038332;23;20383;-75
2023/08/23 00:55:38;;;;;;;3.00;2.70;;;18.30;99.90;;;;;;6035876;23;20417;-77
2023/08/23 00:58:07;;;;;;;4.13;2.80;;;18.30;99.90;;;;;;5996649;23;20505;-75
2023/08/23 01:00:33;;;;;;;2.93;2.40;;;18.20;99.90;;;;;;6019281;23;20393;-75
2023/08/23 01:03:05;;;;;;;3.07;2.77;;;18.20;99.90;;;;;;6043748;23;20416;-77
2023/08/23 01:06:25;;;;;;;3.57;2.73;;;18.10;99.90;;;;;;6018371;23;20398;-76
2023/08/23 01:09:03;;;;;;;3.53;2.30;;;18.10;99.90;;;;;;5909613;24;20398;-77
2023/08/23 01:11:59;;;;;;;3.07;2.40;;;18.00;99.90;;;;;;5926872;23;20453;-76
2023/08/23 01:14:34;;;;;;;3.13;2.80;;;17.90;99.90;;;;;;5928862;24;20450;-76
2023/08/23 01:17:01;;;;;;;2.80;2.60;;;17.90;99.90;;;;;;5928031;24;20399;-77
2023/08/23 01:19:32;;;;;;;2.60;2.40;;;17.90;99.90;;;;;;5905036;24;20385;-77
2023/08/23 01:21:58;;;;;;;4.53;2.40;;;18.00;99.90;;;;;;5963039;24;20383;-77
2023/08/23 01:24:25;;;;;;;2.60;2.40;;;18.00;99.90;;;;;;5960391;24;20807;-77
2023/08/23 01:26:50;;;;;;;3.07;2.43;;;17.90;99.90;;;;;;5960192;24;20365;-77
2023/08/23 01:29:16;;;;;;;3.70;2.57;;;18.00;99.90;;;;;;5982601;23;20399;-76
2023/08/23 01:31:45;;;;;;;3.17;2.87;;;17.90;99.90;;;;;;5982843;24;20544;-77
2023/08/23 01:34:26;;;;;;;2.83;2.60;;;17.90;99.90;;;;;;5960894;24;20170;-76
2023/08/23 01:36:53;;;;;;;5.10;3.60;;;18.00;99.90;;;;;;5984266;23;20781;-77
2023/08/23 01:39:22;;;;;;;4.53;2.57;;;17.90;99.90;;;;;;5985395;23;20435;-76
2023/08/23 01:41:49;;;;;;;2.40;2.20;;;17.80;99.90;;;;;;5959901;24;20386;-79
2023/08/23 01:44:15;;;;;;;2.93;2.40;;;17.90;99.90;;;;;;6019697;23;20389;-78
2023/08/23 01:46:40;;;;;;;3.37;3.07;;;17.90;99.90;;;;;;6070219;23;20391;-77
2023/08/23 01:49:06;;;;;;;2.60;2.10;;;17.70;99.90;;;;;;6069403;23;20464;-78
2023/08/23 01:51:32;;;;;;;3.60;2.30;;;17.70;99.90;;;;;;6071146;23;20180;-76
2023/08/23 01:53:58;;;;;;;4.03;2.30;;;17.60;99.90;;;;;;6093351;23;20136;-76
2023/08/23 01:56:25;;;;;;;3.33;2.90;;;17.60;99.90;;;;;;6059531;23;20223;-75
2023/08/23 01:58:51;;;;;;;2.60;2.40;;;17.60;99.90;;;;;;6080950;23;20435;-75
2023/08/23 02:01:19;;;;;;;2.50;2.30;;;17.60;99.90;;;;;;6075936;23;20431;-76
2023/08/23 02:03:48;;;;;;;3.57;2.30;;;17.60;99.90;;;;;;6099424;23;20470;-75
2023/08/23 02:06:19;;;;;;;4.03;2.20;;;17.60;99.90;;;;;;6100118;23;20357;-75
2023/08/23 02:08:52;;;;;;;2.97;2.50;;;17.50;99.90;;;;;;6075590;23;20481;-75
2023/08/23 02:11:24;;;;;;;5.70;3.33;;;17.60;99.90;;;;;;6053196;23;20387;-76
2023/08/23 02:14:31;;;;;;;4.00;3.10;;;17.60;99.90;;;;;;6065136;23;20439;-76
2023/08/23 02:17:06;;;;;;;4.53;3.10;;;17.50;99.90;;;;;;6053759;23;20398;-77
2023/08/23 02:19:52;;;;;;;3.30;2.90;;;17.50;99.90;;;;;;6063405;23;20410;-76
2023/08/23 02:22:20;;;;;;;2.83;2.57;;;17.40;99.90;;;;;;6075504;23;20394;-76
2023/08/23 02:24:48;;;;;;;3.50;2.43;;;17.40;99.90;;;;;;6099683;23;20158;-75
2023/08/23 02:27:16;;;;;;;3.20;2.80;;;17.40;99.90;;;;;;6051369;23;20469;-77
2023/08/23 02:29:45;;;;;;;3.60;2.80;;;17.30;99.90;;;;;;6053143;23;20411;-77
2023/08/23 02:32:12;;;;;;;4.90;2.80;;;17.30;99.90;;;;;;6075794;23;20388;-75
2023/08/23 02:34:45;;;;;;;3.10;2.80;;;17.30;99.90;;;;;;6074510;23;20494;-76
2023/08/23 02:37:13;;;;;;;2.50;2.13;;;17.20;99.90;;;;;;6064067;23;20170;-75
2023/08/23 02:39:40;;;;;;;2.37;1.80;;;17.20;99.90;;;;;;6040331;23;20415;-75
2023/08/23 02:42:06;;;;;;;5.83;2.10;;;17.20;99.90;;;;;;6016677;23;20395;-74
2023/08/23 02:44:32;;;;;;;2.70;2.00;;;17.10;99.90;;;;;;6017297;23;20144;-75
2023/08/23 02:47:05;;;;;;;2.30;2.10;;;17.10;99.90;;;;;;6017164;23;20382;-75
2023/08/23 02:49:34;;;;;;;2.20;1.80;;;17.10;99.90;;;;;;5980225;23;20383;-75
2023/08/23 02:52:00;;;;;;;3.70;2.77;;;17.00;99.90;;;;;;5933813;24;20411;-76
2023/08/23 02:54:29;;;;;;;4.30;2.70;;;17.10;99.90;;;;;;5980193;24;20381;-76
2023/08/23 02:57:01;;;;;;;3.70;2.90;;;17.10;99.90;;;;;;5936941;24;20406;-75
2023/08/23 02:59:27;;;;;;;3.13;2.77;;;17.10;99.90;;;;;;5957639;24;20434;-75
2023/08/23 03:01:54;;;;;;;3.70;3.40;;;17.10;99.90;;;;;;5959107;24;20158;-75
2023/08/23 03:04:20;;;;;;;4.03;3.60;;;17.10;99.90;;;;;;5957916;24;20426;-75
2023/08/23 03:06:48;;;;;;;4.70;3.90;;;17.20;99.90;;;;;;5958876;24;20407;-76
2023/08/23 03:12:38;;;;;;;5.30;4.80;;;17.10;99.90;;;;;;6067531;23;20376;-75
2023/08/23 03:15:08;;;;;;;5.47;4.63;;;17.20;99.90;;;;;;6048472;23;20429;-76
2023/08/23 03:17:34;;;;;;;4.70;4.20;;;17.10;99.90;;;;;;6043500;23;20427;-76
2023/08/23 03:20:04;;;;;;;5.10;4.60;;;17.10;99.90;;;;;;6044252;23;20467;-76
2023/08/23 03:25:21;;;;;;;6.53;5.97;;;17.00;99.90;;;;;;6109670;23;20481;-77
2023/08/23 03:27:52;;;;;;;7.07;5.83;;;17.00;99.90;;;;;;6129530;23;20429;-77
2023/08/23 03:30:20;;;;;;;6.90;6.30;;;17.00;99.90;;;;;;6129230;23;20397;-75
2023/08/23 03:32:47;;;;;;;7.77;6.57;;;17.00;99.90;;;;;;6063537;23;20560;-77
2023/08/23 03:35:13;;;;;;;9.83;7.77;;;17.00;99.90;;;;;;6105780;23;20435;-78
2023/08/23 03:37:40;;;;;;;6.97;5.93;;;17.00;99.90;;;;;;6130527;23;20406;-78
2023/08/23 03:40:07;;;;;;;7.70;7.00;;;16.90;99.90;;;;;;6085799;23;20431;-76
2023/08/23 03:42:34;;;;;;;7.27;6.60;;;16.90;99.90;;;;;;6105715;23;20208;-77
2023/08/23 03:45:00;;;;;;;6.90;6.27;;;16.80;99.90;;;;;;6155454;23;20361;-76
2023/08/23 03:47:27;;;;;;;9.00;6.73;;;16.90;99.90;;;;;;6105905;23;20358;-76
2023/08/23 03:49:55;;;;;;;7.07;6.37;;;16.80;99.90;;;;;;6082114;23;20412;-76
2023/08/23 03:52:21;;;;;;;8.40;5.80;;;16.80;99.90;;;;;;6105528;23;20385;-77
2023/08/23 03:54:46;;;;;;;8.30;6.47;;;16.70;99.90;;;;;;6128756;23;20395;-76
2023/08/23 03:57:12;;;;;;;6.90;6.30;;;16.70;99.90;;;;;;6129322;23;20148;-76
2023/08/23 03:59:38;;;;;;;7.60;5.07;;;16.70;99.90;;;;;;6105355;23;20162;-76
2023/08/23 04:02:03;;;;;;;6.07;5.47;;;16.70;99.90;;;;;;6121408;23;20238;-78
2023/08/23 04:04:29;;;;;;;8.20;5.40;;;16.60;99.90;;;;;;6106561;23;20143;-76
2023/08/23 04:06:54;;;;;;;6.53;5.90;;;16.60;99.90;;;;;;6131421;23;20193;-77
2023/08/23 04:09:20;;;;;;;6.80;6.20;;;16.60;99.90;;;;;;6081319;23;20414;-77
2023/08/23 04:11:46;;;;;;;6.57;5.50;;;16.60;99.90;;;;;;6103848;23;20153;-77
2023/08/23 04:14:12;;;;;;;7.67;6.97;;;16.50;99.90;;;;;;6132235;23;20382;-76
2023/08/23 04:16:37;;;;;;;8.53;6.97;;;16.60;99.90;;;;;;6106640;23;20149;-78
2023/08/23 04:19:03;;;;;;;7.03;6.33;;;16.60;99.90;;;;;;6107007;23;20189;-77
2023/08/23 04:21:29;;;;;;;7.30;6.60;;;16.50;99.90;;;;;;6107126;23;20550;-76
2023/08/23 04:23:54;;;;;;;6.97;6.37;;;16.40;99.90;;;;;;6105773;23;20410;-78
2023/08/23 04:26:20;;;;;;;8.30;7.30;;;16.40;99.90;;;;;;6107617;23;20239;-76
2023/08/23 04:28:47;;;;;;;7.63;6.93;;;16.40;99.90;;;;;;6104570;23;20152;-78
2023/08/23 04:31:12;;;;;;;7.50;6.80;;;16.40;99.90;;;;;;6106885;23;20173;-77
2023/08/23 04:33:48;;;;;;;7.37;6.67;;;16.40;99.90;;;;;;6085463;23;20642;-78
2023/08/23 04:36:15;;;;;;;6.37;5.77;;;16.40;99.90;;;;;;6088352;23;20397;-78
2023/08/23 04:38:40;;;;;;;6.23;5.63;;;16.40;99.90;;;;;;6134894;23;20499;-76
2023/08/23 04:41:06;;;;;;;8.23;6.13;;;16.40;99.90;;;;;;6109305;23;20179;-77
2023/08/23 04:43:33;;;;;;;8.40;6.57;;;16.30;99.90;;;;;;6107675;23;20132;-78
2023/08/23 04:46:04;;;;;;;6.83;5.70;;;16.40;99.90;;;;;;6082748;23;20380;-77
2023/08/23 04:48:30;;;;;;;7.47;6.67;;;16.40;99.90;;;;;;6106149;23;20403;-77
2023/08/23 04:50:57;;;;;;;8.40;6.07;;;16.50;99.90;;;;;;6132912;23;20400;-78
2023/08/23 04:53:24;;;;;;;6.93;6.23;;;16.40;99.90;;;;;;6132884;23;20134;-77
2023/08/23 04:55:55;;;;;;;6.80;5.20;;;16.40;99.90;;;;;;6106683;23;20390;-76
2023/08/23 04:58:22;;;;;;;7.77;6.33;;;16.40;99.90;;;;;;6106835;23;20415;-77
2023/08/23 22:09:18;;;;;;;3.43;2.80;;;21.70;64.60;;;;;;6155778;23;20454;-77
2023/08/23 22:25:49;;;;;;;2.80;2.13;;;21.10;68.20;;;;;;6120440;23;20466;-77
2023/08/23 22:28:39;;;;;;;3.97;2.87;;;21.00;68.80;;;;;;6112820;23;20424;-78
2023/08/23 22:31:08;;;;;;;2.97;2.67;;;21.00;69.20;;;;;;6047118;23;20581;-77
2023/08/23 22:33:35;;;;;;;3.97;2.30;;;20.90;69.60;;;;;;6023126;23;20365;-79
2023/08/23 22:36:04;;;;;;;2.40;2.20;;;20.90;70.10;;;;;;6094173;23;20378;-78
2023/08/23 22:38:32;;;;;;;3.60;2.80;;;20.90;70.70;;;;;;6021821;23;20504;-77
2023/08/23 22:41:01;;;;;;;5.13;2.70;;;20.80;71.00;;;;;;6046298;23;20490;-77
2023/08/23 22:43:49;;;;;;;4.17;3.13;;;20.80;71.60;;;;;;6000213;23;20390;-76
2023/08/23 22:46:28;;;;;;;6.27;3.60;;;20.90;72.20;;;;;;6093490;23;20418;-77
2023/08/23 22:48:56;;;;;;;5.43;3.83;;;20.90;72.60;;;;;;6093209;23;20391;-76
2023/08/23 22:51:58;;;;;;;5.03;3.67;;;20.90;73.20;;;;;;6052502;23;20429;-78
2023/08/23 22:54:32;;;;;;;3.23;2.93;;;20.90;73.90;;;;;;6007251;23;20444;-77
2023/08/23 22:56:59;;;;;;;4.53;3.30;;;20.90;74.60;;;;;;6047419;23;20401;-77
2023/08/23 22:59:26;;;;;;;5.20;3.33;;;20.80;75.20;;;;;;6069695;23;20444;-77
2023/08/23 23:01:52;;;;;;;3.87;3.07;;;20.90;75.90;;;;;;6047892;23;20389;-77
2023/08/23 23:04:18;;;;;;;3.90;3.23;;;20.80;76.30;;;;;;6072437;23;20361;-76
2023/08/23 23:06:44;;;;;;;5.93;3.37;;;20.70;76.70;;;;;;6054694;23;20158;-78
2023/08/23 23:09:10;;;;;;;3.33;3.03;;;20.70;77.30;;;;;;6072741;23;20364;-78
2023/08/23 23:11:35;;;;;;;2.87;2.50;;;20.70;78.10;;;;;;6106193;23;20168;-77
2023/08/23 23:14:01;;;;;;;3.17;2.53;;;20.60;78.50;;;;;;6107549;23;20144;-78
2023/08/23 23:16:26;;;;;;;3.53;2.67;;;20.60;79.30;;;;;;6107095;23;20163;-78
2023/08/23 23:18:52;;;;;;;2.70;2.50;;;20.50;79.80;;;;;;6106671;23;20551;-78
2023/08/23 23:21:18;;;;;;;3.50;2.50;;;20.50;80.60;;;;;;6104343;23;20558;-79
2023/08/23 23:23:43;;;;;;;2.57;2.37;;;20.40;81.60;;;;;;6103516;23;20137;-76
2023/08/23 23:26:10;;;;;;;3.50;2.93;;;20.40;82.60;;;;;;6077441;23;20141;-76
2023/08/23 23:28:36;;;;;;;2.40;2.17;;;20.40;83.60;;;;;;6102451;23;20612;-76
2023/08/23 23:31:06;;;;;;;2.93;2.57;;;20.40;84.80;;;;;;6053102;23;20404;-80
2023/08/23 23:33:31;;;;;;;2.90;2.30;;;20.40;86.00;;;;;;6102028;23;20200;-77
2023/08/23 23:35:57;;;;;;;3.80;2.80;;;20.40;87.50;;;;;;6102471;23;20365;-77
2023/08/23 23:38:23;;;;;;;2.37;2.13;;;20.40;87.20;;;;;;6102383;23;20169;-78
2023/08/23 23:40:48;;;;;;;3.23;2.60;;;20.40;87.90;;;;;;6052996;23;20695;-78
2023/08/23 23:43:14;;;;;;;3.17;2.40;;;20.30;88.50;;;;;;6077534;23;20148;-77
2023/08/23 23:45:40;;;;;;;4.27;2.57;;;20.30;89.50;;;;;;6102662;23;20168;-77
2023/08/23 23:48:06;;;;;;;2.70;2.37;;;20.20;90.20;;;;;;6102685;23;20298;-77
2023/08/23 23:50:32;;;;;;;3.80;2.93;;;20.20;90.80;;;;;;6102096;23;20180;-75
2023/08/23 23:52:59;;;;;;;4.43;2.37;;;20.20;91.60;;;;;;6102569;23;20578;-77
2023/08/23 23:55:28;;;;;;;8.17;3.20;;;20.20;92.10;;;;;;6104409;23;20770;-77
2023/08/23 23:57:53;;;;;;;3.50;2.90;;;20.10;92.70;;;;;;6076974;23;20397;-76
